sensor_id;sensor_type;location;lat;lon;timestamp;P1;durP1;ratioP1;P2;durP2;ratioP2
57307;SDS011;43152;50.968;18.214;2023-09-12T00:06:27;18.20;;;10.20;;
57307;SDS011;43152;50.968;18.214;2023-09-12T00:16:10;16.30;;;8.50;;
57307;SDS011;43152;50.968;18.214;2023-09-12T00:25:56;21.00;;;9.30;;
57307;SDS011;43152;50.968;18.214;2023-09-12T00:35:38;17.00;;;10.40;;
57307;SDS011;43152;50.968;18.214;2023-09-12T00:45:23;16.80;;;8.90;;
57307;SDS011;43152;50.968;18.214;2023-09-12T00:55:06;13.40;;;7.80;;
57307;SDS011;43152;50.968;18.214;2023-09-12T01:04:49;13.90;;;9.20;;
57307;SDS011;43152;50.968;18.214;2023-09-12T01:14:32;14.40;;;8.40;;
57307;SDS011;43152;50.968;18.214;2023-09-12T01:34:39;15.30;;;9.20;;
57307;SDS011;43152;50.968;18.214;2023-09-12T01:44:22;19.00;;;11.40;;
57307;SDS011;43152;50.968;18.214;2023-09-12T01:54:06;18.50;;;9.90;;
57307;SDS011;43152;50.968;18.214;2023-09-12T02:03:52;15.90;;;9.30;;
57307;SDS011;43152;50.968;18.214;2023-09-12T02:13:34;13.80;;;7.80;;
57307;SDS011;43152;50.968;18.214;2023-09-12T02:23:17;11.30;;;6.80;;
57307;SDS011;43152;50.968;18.214;2023-09-12T02:32:59;12.60;;;7.00;;
57307;SDS011;43152;50.968;18.214;2023-09-12T02:42:43;19.80;;;9.10;;
57307;SDS011;43152;50.968;18.214;2023-09-12T02:52:26;15.00;;;8.20;;
57307;SDS011;43152;50.968;18.214;2023-09-12T03:02:08;15.80;;;8.70;;
57307;SDS011;43152;50.968;18.214;2023-09-12T03:11:51;16.10;;;10.00;;
57307;SDS011;43152;50.968;18.214;2023-09-12T03:21:33;13.00;;;7.90;;
57307;SDS011;43152;50.968;18.214;2023-09-12T03:31:16;16.20;;;9.20;;
57307;SDS011;43152;50.968;18.214;2023-09-12T03:41:00;19.50;;;8.30;;
57307;SDS011;43152;50.968;18.214;2023-09-12T03:50:42;9.60;;;4.10;;
57307;SDS011;43152;50.968;18.214;2023-09-12T04:00:24;17.70;;;10.80;;
57307;SDS011;43152;50.968;18.214;2023-09-12T04:10:07;12.20;;;7.40;;
57307;SDS011;43152;50.968;18.214;2023-09-12T04:19:50;15.90;;;8.80;;
57307;SDS011;43152;50.968;18.214;2023-09-12T04:29:33;25.50;;;9.70;;
57307;SDS011;43152;50.968;18.214;2023-09-12T04:39:18;14.50;;;8.20;;
57307;SDS011;43152;50.968;18.214;2023-09-12T04:49:01;18.00;;;9.60;;
57307;SDS011;43152;50.968;18.214;2023-09-12T04:58:43;15.90;;;8.80;;
57307;SDS011;43152;50.968;18.214;2023-09-12T05:08:26;13.60;;;7.40;;
57307;SDS011;43152;50.968;18.214;2023-09-12T05:18:09;16.50;;;9.90;;
57307;SDS011;43152;50.968;18.214;2023-09-12T05:27:52;16.10;;;9.30;;
57307;SDS011;43152;50.968;18.214;2023-09-12T05:37:35;12.00;;;7.30;;
57307;SDS011;43152;50.968;18.214;2023-09-12T05:47:22;16.40;;;8.80;;
57307;SDS011;43152;50.968;18.214;2023-09-12T05:57:07;14.30;;;7.60;;
57307;SDS011;43152;50.968;18.214;2023-09-12T06:06:52;15.20;;;9.90;;
57307;SDS011;43152;50.968;18.214;2023-09-12T06:16:35;23.70;;;8.90;;
57307;SDS011;43152;50.968;18.214;2023-09-12T06:26:33;17.50;;;8.70;;
57307;SDS011;43152;50.968;18.214;2023-09-12T06:48:46;16.00;;;9.30;;
57307;SDS011;43152;50.968;18.214;2023-09-12T06:58:31;24.20;;;11.40;;
57307;SDS011;43152;50.968;18.214;2023-09-12T07:08:23;15.50;;;9.10;;
57307;SDS011;43152;50.968;18.214;2023-09-12T07:18:06;18.40;;;10.40;;
57307;SDS011;43152;50.968;18.214;2023-09-12T07:27:50;14.80;;;10.10;;
57307;SDS011;43152;50.968;18.214;2023-09-12T07:37:34;14.50;;;9.30;;
57307;SDS011;43152;50.968;18.214;2023-09-12T07:47:28;14.00;;;9.40;;
57307;SDS011;43152;50.968;18.214;2023-09-12T07:57:11;16.80;;;11.30;;
57307;SDS011;43152;50.968;18.214;2023-09-12T08:06:53;15.00;;;10.30;;
57307;SDS011;43152;50.968;18.214;2023-09-12T08:16:35;9.40;;;5.30;;
57307;SDS011;43152;50.968;18.214;2023-09-12T08:26:17;13.80;;;6.10;;
57307;SDS011;43152;50.968;18.214;2023-09-12T08:35:59;17.20;;;6.00;;
57307;SDS011;43152;50.968;18.214;2023-09-12T08:45:42;13.90;;;8.40;;
57307;SDS011;43152;50.968;18.214;2023-09-12T08:55:33;9.80;;;5.30;;
57307;SDS011;43152;50.968;18.214;2023-09-12T09:05:20;12.30;;;6.20;;
57307;SDS011;43152;50.968;18.214;2023-09-12T09:15:27;10.70;;;5.90;;
57307;SDS011;43152;50.968;18.214;2023-09-12T09:25:34;21.10;;;5.50;;
57307;SDS011;43152;50.968;18.214;2023-09-12T09:35:31;14.00;;;4.50;;
57307;SDS011;43152;50.968;18.214;2023-09-12T09:45:18;14.40;;;5.70;;
57307;SDS011;43152;50.968;18.214;2023-09-12T09:55:12;6.10;;;3.90;;
57307;SDS011;43152;50.968;18.214;2023-09-12T10:05:01;11.10;;;5.10;;
57307;SDS011;43152;50.968;18.214;2023-09-12T10:14:54;9.40;;;5.00;;
57307;SDS011;43152;50.968;18.214;2023-09-12T10:24:47;14.50;;;4.80;;
57307;SDS011;43152;50.968;18.214;2023-09-12T10:34:33;9.00;;;4.80;;
57307;SDS011;43152;50.968;18.214;2023-09-12T10:44:18;19.00;;;5.90;;
57307;SDS011;43152;50.968;18.214;2023-09-12T10:54:06;10.60;;;5.30;;
57307;SDS011;43152;50.968;18.214;2023-09-12T11:03:55;12.20;;;5.70;;
57307;SDS011;43152;50.968;18.214;2023-09-12T11:14:03;11.20;;;4.20;;
57307;SDS011;43152;50.968;18.214;2023-09-12T11:24:13;15.50;;;4.60;;
57307;SDS011;43152;50.968;18.214;2023-09-12T11:34:24;10.20;;;4.80;;
57307;SDS011;43152;50.968;18.214;2023-09-12T11:44:16;2.50;;;0.80;;
57307;SDS011;43152;50.968;18.214;2023-09-12T11:54:00;8.30;;;3.30;;
57307;SDS011;43152;50.968;18.214;2023-09-12T12:03:46;8.40;;;5.30;;
57307;SDS011;43152;50.968;18.214;2023-09-12T12:13:34;9.40;;;5.70;;
57307;SDS011;43152;50.968;18.214;2023-09-12T12:23:17;11.10;;;5.60;;
57307;SDS011;43152;50.968;18.214;2023-09-12T12:33:09;9.70;;;6.40;;
57307;SDS011;43152;50.968;18.214;2023-09-12T12:42:53;8.20;;;4.90;;
57307;SDS011;43152;50.968;18.214;2023-09-12T12:52:41;5.40;;;2.80;;
57307;SDS011;43152;50.968;18.214;2023-09-12T13:02:30;9.10;;;5.30;;
57307;SDS011;43152;50.968;18.214;2023-09-12T13:12:13;7.60;;;4.40;;
57307;SDS011;43152;50.968;18.214;2023-09-12T13:21:57;8.30;;;5.00;;
57307;SDS011;43152;50.968;18.214;2023-09-12T13:31:39;8.20;;;4.60;;
57307;SDS011;43152;50.968;18.214;2023-09-12T13:41:22;8.70;;;4.70;;
57307;SDS011;43152;50.968;18.214;2023-09-12T13:51:07;8.90;;;5.20;;
57307;SDS011;43152;50.968;18.214;2023-09-12T14:00:52;3.60;;;1.60;;
57307;SDS011;43152;50.968;18.214;2023-09-12T14:10:35;5.30;;;1.80;;
57307;SDS011;43152;50.968;18.214;2023-09-12T14:20:17;10.20;;;6.20;;
57307;SDS011;43152;50.968;18.214;2023-09-12T14:30:09;5.30;;;2.10;;
57307;SDS011;43152;50.968;18.214;2023-09-12T14:39:54;7.30;;;4.10;;
57307;SDS011;43152;50.968;18.214;2023-09-12T14:49:38;9.80;;;5.60;;
57307;SDS011;43152;50.968;18.214;2023-09-12T14:59:21;11.20;;;4.80;;
57307;SDS011;43152;50.968;18.214;2023-09-12T15:09:04;10.10;;;4.30;;
57307;SDS011;43152;50.968;18.214;2023-09-12T15:18:48;7.50;;;4.20;;
57307;SDS011;43152;50.968;18.214;2023-09-12T15:28:30;19.50;;;5.30;;
57307;SDS011;43152;50.968;18.214;2023-09-12T15:38:13;9.10;;;4.60;;
57307;SDS011;43152;50.968;18.214;2023-09-12T15:47:55;8.20;;;4.50;;
57307;SDS011;43152;50.968;18.214;2023-09-12T15:57:38;7.70;;;4.60;;
57307;SDS011;43152;50.968;18.214;2023-09-12T16:07:28;7.90;;;4.80;;
57307;SDS011;43152;50.968;18.214;2023-09-12T16:17:09;8.40;;;4.40;;
57307;SDS011;43152;50.968;18.214;2023-09-12T16:26:52;15.40;;;5.20;;
57307;SDS011;43152;50.968;18.214;2023-09-12T16:36:36;15.90;;;6.00;;
57307;SDS011;43152;50.968;18.214;2023-09-12T16:46:19;10.80;;;5.10;;
57307;SDS011;43152;50.968;18.214;2023-09-12T16:56:03;12.80;;;6.30;;
57307;SDS011;43152;50.968;18.214;2023-09-12T17:05:45;12.40;;;7.10;;
57307;SDS011;43152;50.968;18.214;2023-09-12T17:15:28;17.90;;;7.20;;
57307;SDS011;43152;50.968;18.214;2023-09-12T17:25:10;15.90;;;8.50;;
57307;SDS011;43152;50.968;18.214;2023-09-12T17:35:01;15.20;;;9.60;;
57307;SDS011;43152;50.968;18.214;2023-09-12T17:44:46;22.10;;;10.10;;
57307;SDS011;43152;50.968;18.214;2023-09-12T17:54:31;17.70;;;10.00;;
57307;SDS011;43152;50.968;18.214;2023-09-12T18:04:14;23.30;;;11.90;;
57307;SDS011;43152;50.968;18.214;2023-09-12T18:13:57;28.40;;;14.60;;
57307;SDS011;43152;50.968;18.214;2023-09-12T18:23:42;18.10;;;10.40;;
57307;SDS011;43152;50.968;18.214;2023-09-12T18:33:28;28.30;;;16.00;;
57307;SDS011;43152;50.968;18.214;2023-09-12T18:43:12;18.10;;;12.80;;
57307;SDS011;43152;50.968;18.214;2023-09-12T18:52:56;22.80;;;8.90;;
57307;SDS011;43152;50.968;18.214;2023-09-12T19:02:43;16.00;;;9.40;;
57307;SDS011;43152;50.968;18.214;2023-09-12T19:12:26;13.00;;;8.50;;
57307;SDS011;43152;50.968;18.214;2023-09-12T19:22:08;16.40;;;8.10;;
57307;SDS011;43152;50.968;18.214;2023-09-12T19:31:51;19.60;;;7.30;;
57307;SDS011;43152;50.968;18.214;2023-09-12T19:41:34;18.80;;;10.50;;
57307;SDS011;43152;50.968;18.214;2023-09-12T19:54:45;17.20;;;8.90;;
57307;SDS011;43152;50.968;18.214;2023-09-12T20:04:29;18.00;;;10.60;;
57307;SDS011;43152;50.968;18.214;2023-09-12T20:14:13;15.30;;;9.50;;
57307;SDS011;43152;50.968;18.214;2023-09-12T20:23:59;16.40;;;9.20;;
57307;SDS011;43152;50.968;18.214;2023-09-12T20:33:43;21.90;;;7.70;;
57307;SDS011;43152;50.968;18.214;2023-09-12T20:43:26;15.00;;;9.00;;
57307;SDS011;43152;50.968;18.214;2023-09-12T20:53:11;21.00;;;11.50;;
57307;SDS011;43152;50.968;18.214;2023-09-12T21:02:57;22.90;;;10.90;;
57307;SDS011;43152;50.968;18.214;2023-09-12T21:12:40;12.80;;;6.30;;
57307;SDS011;43152;50.968;18.214;2023-09-12T21:22:25;18.70;;;10.60;;
57307;SDS011;43152;50.968;18.214;2023-09-12T21:32:11;16.10;;;9.70;;
57307;SDS011;43152;50.968;18.214;2023-09-12T21:41:55;24.70;;;11.70;;
57307;SDS011;43152;50.968;18.214;2023-09-12T21:51:38;14.00;;;8.60;;
57307;SDS011;43152;50.968;18.214;2023-09-12T22:21:43;20.60;;;12.20;;
57307;SDS011;43152;50.968;18.214;2023-09-12T22:31:25;14.90;;;10.00;;
57307;SDS011;43152;50.968;18.214;2023-09-12T22:41:10;15.60;;;10.80;;
57307;SDS011;43152;50.968;18.214;2023-09-12T22:50:54;22.40;;;10.90;;
57307;SDS011;43152;50.968;18.214;2023-09-12T23:00:38;15.20;;;9.30;;
57307;SDS011;43152;50.968;18.214;2023-09-12T23:10:21;19.40;;;9.50;;
57307;SDS011;43152;50.968;18.214;2023-09-12T23:20:04;17.60;;;9.20;;
57307;SDS011;43152;50.968;18.214;2023-09-12T23:29:49;16.60;;;8.30;;
57307;SDS011;43152;50.968;18.214;2023-09-12T23:39:33;10.20;;;3.60;;
57307;SDS011;43152;50.968;18.214;2023-09-12T23:49:15;19.10;;;11.70;;
57307;SDS011;43152;50.968;18.214;2023-09-12T23:59:01;21.50;;;10.30;;
